Station: EBLG - 25/07/2017 16:20Z (il y a 15 minutes)
EBLG 251620Z 31010KT 270V340 9999 -SHRA FEW030 17/12 Q1011 NOSIG
Vent du 310º - 10 kt (vent de direction variable de 270º à 340º)
Visibilité > 10 km - faible averses de pluie
Nuages épars à 3000 pieds
Température: +17ºC - Point de rosée: +12ºC - QNH: 1011 hPa
Pas de changement significatif prévu dans les 2 heures qui suivent l'observation